sensor_id;sensor_type;location;lat;lon;timestamp;P1;durP1;ratioP1;P2;durP2;ratioP2
64688;SDS011;62504;46.070;14.492;2022-11-15T00:01:36;51.57;;;23.07;;
64688;SDS011;62504;46.070;14.492;2022-11-15T00:04:02;49.00;;;22.77;;
64688;SDS011;62504;46.070;14.492;2022-11-15T00:06:29;45.80;;;22.63;;
64688;SDS011;62504;46.070;14.492;2022-11-15T00:08:54;47.73;;;22.57;;
64688;SDS011;62504;46.070;14.492;2022-11-15T00:11:22;45.97;;;22.07;;
64688;SDS011;62504;46.070;14.492;2022-11-15T00:13:48;46.87;;;23.07;;
64688;SDS011;62504;46.070;14.492;2022-11-15T00:16:13;50.80;;;23.40;;
64688;SDS011;62504;46.070;14.492;2022-11-15T00:18:39;47.23;;;22.70;;
64688;SDS011;62504;46.070;14.492;2022-11-15T00:21:06;50.77;;;23.07;;
64688;SDS011;62504;46.070;14.492;2022-11-15T00:23:34;48.83;;;23.37;;
64688;SDS011;62504;46.070;14.492;2022-11-15T00:26:00;43.70;;;22.37;;
64688;SDS011;62504;46.070;14.492;2022-11-15T00:28:26;52.27;;;23.43;;
64688;SDS011;62504;46.070;14.492;2022-11-15T00:30:52;45.90;;;22.67;;
64688;SDS011;62504;46.070;14.492;2022-11-15T00:33:17;49.23;;;23.70;;
64688;SDS011;62504;46.070;14.492;2022-11-15T00:35:43;47.83;;;21.97;;
64688;SDS011;62504;46.070;14.492;2022-11-15T00:38:09;48.20;;;22.77;;
64688;SDS011;62504;46.070;14.492;2022-11-15T00:40:34;46.20;;;22.40;;
64688;SDS011;62504;46.070;14.492;2022-11-15T00:43:00;46.97;;;23.23;;
64688;SDS011;62504;46.070;14.492;2022-11-15T00:45:26;49.47;;;22.40;;
64688;SDS011;62504;46.070;14.492;2022-11-15T00:47:51;46.03;;;22.60;;
64688;SDS011;62504;46.070;14.492;2022-11-15T00:50:17;45.83;;;22.27;;
64688;SDS011;62504;46.070;14.492;2022-11-15T00:52:44;44.80;;;22.07;;
64688;SDS011;62504;46.070;14.492;2022-11-15T00:55:13;45.80;;;22.10;;
64688;SDS011;62504;46.070;14.492;2022-11-15T00:57:40;44.83;;;22.00;;
64688;SDS011;62504;46.070;14.492;2022-11-15T01:00:06;48.80;;;23.07;;
64688;SDS011;62504;46.070;14.492;2022-11-15T01:02:32;50.47;;;24.17;;
64688;SDS011;62504;46.070;14.492;2022-11-15T01:04:57;48.43;;;22.77;;
64688;SDS011;62504;46.070;14.492;2022-11-15T01:07:23;45.57;;;22.00;;
64688;SDS011;62504;46.070;14.492;2022-11-15T01:09:49;47.80;;;23.17;;
64688;SDS011;62504;46.070;14.492;2022-11-15T01:12:14;46.70;;;23.73;;
64688;SDS011;62504;46.070;14.492;2022-11-15T01:14:40;48.70;;;22.97;;
64688;SDS011;62504;46.070;14.492;2022-11-15T01:17:05;46.20;;;22.70;;
64688;SDS011;62504;46.070;14.492;2022-11-15T01:19:31;44.20;;;21.97;;
64688;SDS011;62504;46.070;14.492;2022-11-15T01:21:57;46.00;;;21.30;;
64688;SDS011;62504;46.070;14.492;2022-11-15T01:24:22;44.80;;;22.20;;
64688;SDS011;62504;46.070;14.492;2022-11-15T01:26:48;48.47;;;22.23;;
64688;SDS011;62504;46.070;14.492;2022-11-15T01:29:13;42.03;;;21.60;;
64688;SDS011;62504;46.070;14.492;2022-11-15T01:31:39;45.17;;;21.37;;
64688;SDS011;62504;46.070;14.492;2022-11-15T01:34:05;46.47;;;21.73;;
64688;SDS011;62504;46.070;14.492;2022-11-15T01:36:30;44.27;;;21.70;;
64688;SDS011;62504;46.070;14.492;2022-11-15T01:38:57;47.97;;;22.13;;
64688;SDS011;62504;46.070;14.492;2022-11-15T01:41:32;46.97;;;21.23;;
64688;SDS011;62504;46.070;14.492;2022-11-15T01:46:58;45.40;;;21.83;;
64688;SDS011;62504;46.070;14.492;2022-11-15T01:49:26;42.97;;;21.43;;
64688;SDS011;62504;46.070;14.492;2022-11-15T01:51:56;44.30;;;21.23;;
64688;SDS011;62504;46.070;14.492;2022-11-15T01:54:22;46.93;;;21.93;;
64688;SDS011;62504;46.070;14.492;2022-11-15T01:57:09;46.10;;;22.20;;
64688;SDS011;62504;46.070;14.492;2022-11-15T01:59:36;44.20;;;21.10;;
64688;SDS011;62504;46.070;14.492;2022-11-15T02:02:04;41.60;;;20.67;;
64688;SDS011;62504;46.070;14.492;2022-11-15T02:04:31;40.43;;;20.23;;
64688;SDS011;62504;46.070;14.492;2022-11-15T02:06:59;42.67;;;20.97;;
64688;SDS011;62504;46.070;14.492;2022-11-15T02:09:26;47.17;;;22.00;;
64688;SDS011;62504;46.070;14.492;2022-11-15T02:11:52;44.57;;;21.00;;
64688;SDS011;62504;46.070;14.492;2022-11-15T02:14:19;42.70;;;21.40;;
64688;SDS011;62504;46.070;14.492;2022-11-15T02:32:44;47.87;;;22.27;;
64688;SDS011;62504;46.070;14.492;2022-11-15T02:43:43;48.67;;;23.30;;
64688;SDS011;62504;46.070;14.492;2022-11-15T02:49:23;49.37;;;23.63;;
64688;SDS011;62504;46.070;14.492;2022-11-15T02:51:51;50.73;;;23.87;;
64688;SDS011;62504;46.070;14.492;2022-11-15T02:54:20;54.20;;;24.13;;
64688;SDS011;62504;46.070;14.492;2022-11-15T02:56:49;52.13;;;24.87;;
64688;SDS011;62504;46.070;14.492;2022-11-15T02:59:28;54.13;;;25.43;;
64688;SDS011;62504;46.070;14.492;2022-11-15T03:02:04;51.17;;;24.83;;
64688;SDS011;62504;46.070;14.492;2022-11-15T03:04:53;52.10;;;24.60;;
64688;SDS011;62504;46.070;14.492;2022-11-15T03:07:29;51.40;;;24.87;;
64688;SDS011;62504;46.070;14.492;2022-11-15T03:10:06;53.60;;;25.50;;
64688;SDS011;62504;46.070;14.492;2022-11-15T03:12:49;53.97;;;25.07;;
64688;SDS011;62504;46.070;14.492;2022-11-15T03:15:37;52.23;;;24.63;;
64688;SDS011;62504;46.070;14.492;2022-11-15T03:18:11;53.93;;;25.47;;
64688;SDS011;62504;46.070;14.492;2022-11-15T03:20:44;50.50;;;24.93;;
64688;SDS011;62504;46.070;14.492;2022-11-15T03:23:11;52.73;;;25.73;;
64688;SDS011;62504;46.070;14.492;2022-11-15T03:25:46;52.17;;;24.70;;
64688;SDS011;62504;46.070;14.492;2022-11-15T03:28:25;54.90;;;24.27;;
64688;SDS011;62504;46.070;14.492;2022-11-15T03:31:00;52.80;;;23.73;;
64688;SDS011;62504;46.070;14.492;2022-11-15T03:33:49;51.93;;;23.27;;
64688;SDS011;62504;46.070;14.492;2022-11-15T03:36:18;52.33;;;24.27;;
64688;SDS011;62504;46.070;14.492;2022-11-15T03:38:44;50.97;;;24.30;;
64688;SDS011;62504;46.070;14.492;2022-11-15T03:41:15;53.37;;;24.50;;
64688;SDS011;62504;46.070;14.492;2022-11-15T03:47:11;53.80;;;24.83;;
64688;SDS011;62504;46.070;14.492;2022-11-15T03:49:44;51.87;;;23.97;;
64688;SDS011;62504;46.070;14.492;2022-11-15T03:52:16;55.50;;;24.67;;
64688;SDS011;62504;46.070;14.492;2022-11-15T03:54:56;55.33;;;25.93;;
64688;SDS011;62504;46.070;14.492;2022-11-15T03:57:22;54.30;;;25.27;;
64688;SDS011;62504;46.070;14.492;2022-11-15T03:59:47;56.33;;;25.33;;
64688;SDS011;62504;46.070;14.492;2022-11-15T04:02:13;50.57;;;24.13;;
64688;SDS011;62504;46.070;14.492;2022-11-15T04:04:39;56.17;;;25.23;;
64688;SDS011;62504;46.070;14.492;2022-11-15T04:07:05;52.97;;;25.57;;
64688;SDS011;62504;46.070;14.492;2022-11-15T04:09:30;54.60;;;24.87;;
64688;SDS011;62504;46.070;14.492;2022-11-15T04:11:56;59.03;;;25.37;;
64688;SDS011;62504;46.070;14.492;2022-11-15T04:14:22;50.87;;;24.37;;
64688;SDS011;62504;46.070;14.492;2022-11-15T04:16:47;53.27;;;24.03;;
64688;SDS011;62504;46.070;14.492;2022-11-15T04:19:13;52.60;;;23.93;;
64688;SDS011;62504;46.070;14.492;2022-11-15T04:21:57;49.90;;;23.67;;
64688;SDS011;62504;46.070;14.492;2022-11-15T04:24:41;50.87;;;23.67;;
64688;SDS011;62504;46.070;14.492;2022-11-15T04:27:07;53.70;;;23.77;;
64688;SDS011;62504;46.070;14.492;2022-11-15T04:29:32;53.50;;;25.30;;
64688;SDS011;62504;46.070;14.492;2022-11-15T04:32:04;56.47;;;24.87;;
64688;SDS011;62504;46.070;14.492;2022-11-15T04:34:31;57.63;;;25.40;;
64688;SDS011;62504;46.070;14.492;2022-11-15T04:36:57;56.60;;;24.80;;
64688;SDS011;62504;46.070;14.492;2022-11-15T04:39:40;52.67;;;24.80;;
64688;SDS011;62504;46.070;14.492;2022-11-15T04:42:07;55.83;;;24.90;;
64688;SDS011;62504;46.070;14.492;2022-11-15T04:44:33;61.13;;;25.70;;
64688;SDS011;62504;46.070;14.492;2022-11-15T04:46:59;56.07;;;25.33;;
64688;SDS011;62504;46.070;14.492;2022-11-15T04:49:24;56.57;;;24.07;;
64688;SDS011;62504;46.070;14.492;2022-11-15T04:51:50;60.33;;;26.50;;
64688;SDS011;62504;46.070;14.492;2022-11-15T04:54:15;60.13;;;25.83;;
64688;SDS011;62504;46.070;14.492;2022-11-15T04:56:42;58.73;;;25.87;;
64688;SDS011;62504;46.070;14.492;2022-11-15T04:59:07;55.80;;;24.90;;
64688;SDS011;62504;46.070;14.492;2022-11-15T05:01:33;58.20;;;25.73;;
64688;SDS011;62504;46.070;14.492;2022-11-15T05:03:58;60.07;;;25.70;;
64688;SDS011;62504;46.070;14.492;2022-11-15T05:06:43;58.80;;;24.57;;
64688;SDS011;62504;46.070;14.492;2022-11-15T05:09:08;57.03;;;24.97;;
64688;SDS011;62504;46.070;14.492;2022-11-15T05:11:34;60.97;;;26.00;;
64688;SDS011;62504;46.070;14.492;2022-11-15T05:14:00;60.13;;;25.97;;
64688;SDS011;62504;46.070;14.492;2022-11-15T05:16:25;60.00;;;25.60;;
64688;SDS011;62504;46.070;14.492;2022-11-15T05:18:52;58.70;;;24.50;;
64688;SDS011;62504;46.070;14.492;2022-11-15T05:21:18;63.17;;;26.37;;
64688;SDS011;62504;46.070;14.492;2022-11-15T05:23:43;60.77;;;25.70;;
64688;SDS011;62504;46.070;14.492;2022-11-15T05:26:09;58.70;;;25.33;;
64688;SDS011;62504;46.070;14.492;2022-11-15T05:28:36;57.00;;;25.50;;
64688;SDS011;62504;46.070;14.492;2022-11-15T05:33:35;58.30;;;25.00;;
64688;SDS011;62504;46.070;14.492;2022-11-15T05:36:04;60.07;;;25.80;;
64688;SDS011;62504;46.070;14.492;2022-11-15T05:38:34;60.57;;;25.17;;
64688;SDS011;62504;46.070;14.492;2022-11-15T05:41:00;62.43;;;26.73;;
64688;SDS011;62504;46.070;14.492;2022-11-15T05:43:29;55.67;;;24.47;;
64688;SDS011;62504;46.070;14.492;2022-11-15T05:45:56;59.20;;;26.23;;
64688;SDS011;62504;46.070;14.492;2022-11-15T05:48:23;57.33;;;25.90;;
64688;SDS011;62504;46.070;14.492;2022-11-15T05:50:49;59.17;;;26.17;;
64688;SDS011;62504;46.070;14.492;2022-11-15T05:53:15;60.73;;;26.20;;
64688;SDS011;62504;46.070;14.492;2022-11-15T05:55:44;61.07;;;26.83;;
64688;SDS011;62504;46.070;14.492;2022-11-15T05:58:10;56.93;;;25.83;;
64688;SDS011;62504;46.070;14.492;2022-11-15T06:00:36;58.07;;;25.63;;
64688;SDS011;62504;46.070;14.492;2022-11-15T06:03:04;57.33;;;25.57;;
64688;SDS011;62504;46.070;14.492;2022-11-15T06:05:30;59.47;;;25.07;;
64688;SDS011;62504;46.070;14.492;2022-11-15T06:07:58;56.23;;;24.60;;
64688;SDS011;62504;46.070;14.492;2022-11-15T06:10:24;57.33;;;25.20;;
64688;SDS011;62504;46.070;14.492;2022-11-15T06:12:57;61.03;;;25.43;;
64688;SDS011;62504;46.070;14.492;2022-11-15T06:15:24;56.73;;;24.70;;
64688;SDS011;62504;46.070;14.492;2022-11-15T06:17:50;55.50;;;23.87;;
64688;SDS011;62504;46.070;14.492;2022-11-15T06:20:15;54.53;;;23.73;;
64688;SDS011;62504;46.070;14.492;2022-11-15T06:22:41;56.47;;;24.67;;
64688;SDS011;62504;46.070;14.492;2022-11-15T06:25:06;58.90;;;24.00;;
64688;SDS011;62504;46.070;14.492;2022-11-15T06:27:32;54.30;;;23.50;;
64688;SDS011;62504;46.070;14.492;2022-11-15T06:29:58;56.93;;;23.37;;
64688;SDS011;62504;46.070;14.492;2022-11-15T06:32:23;58.00;;;24.17;;
64688;SDS011;62504;46.070;14.492;2022-11-15T06:34:49;60.93;;;24.47;;
64688;SDS011;62504;46.070;14.492;2022-11-15T06:37:15;59.37;;;23.80;;
64688;SDS011;62504;46.070;14.492;2022-11-15T06:39:40;55.07;;;23.33;;
64688;SDS011;62504;46.070;14.492;2022-11-15T06:42:07;57.20;;;23.27;;
64688;SDS011;62504;46.070;14.492;2022-11-15T06:44:33;55.07;;;23.33;;
64688;SDS011;62504;46.070;14.492;2022-11-15T06:46:59;54.27;;;23.10;;
64688;SDS011;62504;46.070;14.492;2022-11-15T06:49:25;53.13;;;22.83;;
64688;SDS011;62504;46.070;14.492;2022-11-15T06:51:50;53.73;;;22.17;;
64688;SDS011;62504;46.070;14.492;2022-11-15T06:54:16;54.67;;;22.40;;
64688;SDS011;62504;46.070;14.492;2022-11-15T06:56:42;54.47;;;22.30;;
64688;SDS011;62504;46.070;14.492;2022-11-15T06:59:07;55.63;;;23.60;;
64688;SDS011;62504;46.070;14.492;2022-11-15T07:01:33;52.87;;;22.93;;
64688;SDS011;62504;46.070;14.492;2022-11-15T07:03:58;56.87;;;23.43;;
64688;SDS011;62504;46.070;14.492;2022-11-15T07:06:24;54.77;;;21.70;;
64688;SDS011;62504;46.070;14.492;2022-11-15T07:08:50;52.90;;;22.53;;
64688;SDS011;62504;46.070;14.492;2022-11-15T07:11:15;46.43;;;20.30;;
64688;SDS011;62504;46.070;14.492;2022-11-15T07:13:41;47.13;;;20.93;;
64688;SDS011;62504;46.070;14.492;2022-11-15T07:16:07;47.97;;;21.37;;
64688;SDS011;62504;46.070;14.492;2022-11-15T07:18:35;47.60;;;20.90;;
64688;SDS011;62504;46.070;14.492;2022-11-15T07:21:05;49.17;;;22.20;;
64688;SDS011;62504;46.070;14.492;2022-11-15T07:23:33;49.37;;;21.20;;
64688;SDS011;62504;46.070;14.492;2022-11-15T07:26:01;45.60;;;21.03;;
64688;SDS011;62504;46.070;14.492;2022-11-15T07:28:27;49.50;;;21.57;;
64688;SDS011;62504;46.070;14.492;2022-11-15T07:30:53;47.83;;;21.03;;
64688;SDS011;62504;46.070;14.492;2022-11-15T07:33:19;46.57;;;21.73;;
64688;SDS011;62504;46.070;14.492;2022-11-15T07:35:44;41.30;;;20.10;;
64688;SDS011;62504;46.070;14.492;2022-11-15T07:38:13;46.23;;;21.20;;
64688;SDS011;62504;46.070;14.492;2022-11-15T07:40:40;49.83;;;22.47;;
64688;SDS011;62504;46.070;14.492;2022-11-15T07:43:06;44.03;;;20.90;;
64688;SDS011;62504;46.070;14.492;2022-11-15T07:45:32;43.13;;;20.70;;
64688;SDS011;62504;46.070;14.492;2022-11-15T07:47:59;48.17;;;21.93;;
64688;SDS011;62504;46.070;14.492;2022-11-15T07:50:25;48.93;;;22.30;;
64688;SDS011;62504;46.070;14.492;2022-11-15T07:52:55;47.50;;;21.83;;
64688;SDS011;62504;46.070;14.492;2022-11-15T07:55:22;46.20;;;22.07;;
64688;SDS011;62504;46.070;14.492;2022-11-15T07:57:48;52.03;;;23.80;;
64688;SDS011;62504;46.070;14.492;2022-11-15T08:00:14;47.17;;;22.73;;
64688;SDS011;62504;46.070;14.492;2022-11-15T08:02:40;44.57;;;21.53;;
64688;SDS011;62504;46.070;14.492;2022-11-15T08:05:06;53.80;;;23.53;;
64688;SDS011;62504;46.070;14.492;2022-11-15T08:07:32;53.37;;;24.37;;
64688;SDS011;62504;46.070;14.492;2022-11-15T08:09:58;53.93;;;24.27;;
64688;SDS011;62504;46.070;14.492;2022-11-15T08:12:23;53.27;;;23.80;;
64688;SDS011;62504;46.070;14.492;2022-11-15T08:14:49;54.43;;;24.53;;
64688;SDS011;62504;46.070;14.492;2022-11-15T08:17:15;52.83;;;24.70;;
64688;SDS011;62504;46.070;14.492;2022-11-15T08:19:40;56.40;;;25.30;;
64688;SDS011;62504;46.070;14.492;2022-11-15T08:22:06;55.80;;;25.13;;
64688;SDS011;62504;46.070;14.492;2022-11-15T08:24:32;59.23;;;25.23;;
64688;SDS011;62504;46.070;14.492;2022-11-15T08:26:59;60.70;;;24.90;;
64688;SDS011;62504;46.070;14.492;2022-11-15T08:29:24;57.40;;;26.50;;
64688;SDS011;62504;46.070;14.492;2022-11-15T08:31:50;61.67;;;27.73;;
64688;SDS011;62504;46.070;14.492;2022-11-15T08:34:16;69.67;;;26.30;;
64688;SDS011;62504;46.070;14.492;2022-11-15T08:36:41;71.27;;;27.03;;
64688;SDS011;62504;46.070;14.492;2022-11-15T08:39:09;67.97;;;27.00;;
64688;SDS011;62504;46.070;14.492;2022-11-15T08:41:36;57.43;;;24.07;;
64688;SDS011;62504;46.070;14.492;2022-11-15T08:44:02;52.30;;;22.83;;
64688;SDS011;62504;46.070;14.492;2022-11-15T08:46:29;57.63;;;23.53;;
64688;SDS011;62504;46.070;14.492;2022-11-15T08:48:54;60.80;;;24.20;;
64688;SDS011;62504;46.070;14.492;2022-11-15T08:51:20;56.53;;;22.73;;
64688;SDS011;62504;46.070;14.492;2022-11-15T08:53:46;54.87;;;23.17;;
64688;SDS011;62504;46.070;14.492;2022-11-15T08:56:12;56.60;;;23.30;;
64688;SDS011;62504;46.070;14.492;2022-11-15T08:58:39;48.00;;;22.67;;
64688;SDS011;62504;46.070;14.492;2022-11-15T09:01:05;47.13;;;20.97;;
64688;SDS011;62504;46.070;14.492;2022-11-15T09:03:31;49.90;;;21.97;;
64688;SDS011;62504;46.070;14.492;2022-11-15T09:05:58;53.30;;;22.40;;
64688;SDS011;62504;46.070;14.492;2022-11-15T09:08:25;48.27;;;21.33;;
64688;SDS011;62504;46.070;14.492;2022-11-15T09:10:54;50.63;;;22.77;;
64688;SDS011;62504;46.070;14.492;2022-11-15T09:13:20;50.80;;;22.47;;
64688;SDS011;62504;46.070;14.492;2022-11-15T09:15:45;47.50;;;21.00;;
64688;SDS011;62504;46.070;14.492;2022-11-15T09:18:11;48.97;;;21.40;;
64688;SDS011;62504;46.070;14.492;2022-11-15T09:20:37;48.60;;;22.40;;
64688;SDS011;62504;46.070;14.492;2022-11-15T09:23:03;44.73;;;21.43;;
64688;SDS011;62504;46.070;14.492;2022-11-15T09:25:30;55.30;;;22.67;;
64688;SDS011;62504;46.070;14.492;2022-11-15T09:27:56;57.23;;;22.47;;
64688;SDS011;62504;46.070;14.492;2022-11-15T09:30:22;63.07;;;21.73;;
64688;SDS011;62504;46.070;14.492;2022-11-15T09:32:48;105.40;;;24.40;;
64688;SDS011;62504;46.070;14.492;2022-11-15T09:35:14;50.30;;;20.07;;
64688;SDS011;62504;46.070;14.492;2022-11-15T09:37:40;62.57;;;21.80;;
64688;SDS011;62504;46.070;14.492;2022-11-15T09:40:06;46.27;;;20.87;;
64688;SDS011;62504;46.070;14.492;2022-11-15T09:50:49;50.27;;;21.83;;
64688;SDS011;62504;46.070;14.492;2022-11-15T09:56:00;36.77;;;19.50;;
64688;SDS011;62504;46.070;14.492;2022-11-15T09:58:33;38.57;;;18.33;;
64688;SDS011;62504;46.070;14.492;2022-11-15T10:02:05;35.57;;;17.73;;
64688;SDS011;62504;46.070;14.492;2022-11-15T10:04:08;35.57;;;18.17;;
64688;SDS011;62504;46.070;14.492;2022-11-15T10:06:34;34.90;;;17.30;;
64688;SDS011;62504;46.070;14.492;2022-11-15T10:09:09;34.23;;;16.63;;
64688;SDS011;62504;46.070;14.492;2022-11-15T10:11:44;27.00;;;14.50;;
64688;SDS011;62504;46.070;14.492;2022-11-15T10:22:27;23.80;;;12.70;;
64688;SDS011;62504;46.070;14.492;2022-11-15T10:25:27;22.33;;;11.83;;
64688;SDS011;62504;46.070;14.492;2022-11-15T10:27:59;20.60;;;11.90;;
64688;SDS011;62504;46.070;14.492;2022-11-15T10:30:32;20.30;;;10.50;;
64688;SDS011;62504;46.070;14.492;2022-11-15T10:38:47;17.63;;;9.80;;
64688;SDS011;62504;46.070;14.492;2022-11-15T10:46:40;15.03;;;8.90;;
64688;SDS011;62504;46.070;14.492;2022-11-15T10:49:14;15.73;;;9.63;;
64688;SDS011;62504;46.070;14.492;2022-11-15T10:51:46;17.47;;;9.40;;
64688;SDS011;62504;46.070;14.492;2022-11-15T10:54:16;13.70;;;8.53;;
64688;SDS011;62504;46.070;14.492;2022-11-15T10:56:50;18.50;;;9.10;;
64688;SDS011;62504;46.070;14.492;2022-11-15T10:59:22;16.50;;;9.27;;
64688;SDS011;62504;46.070;14.492;2022-11-15T11:01:52;17.30;;;8.87;;
64688;SDS011;62504;46.070;14.492;2022-11-15T11:04:18;14.93;;;8.50;;
64688;SDS011;62504;46.070;14.492;2022-11-15T11:11:59;16.93;;;9.37;;
64688;SDS011;62504;46.070;14.492;2022-11-15T11:14:29;14.07;;;8.80;;
64688;SDS011;62504;46.070;14.492;2022-11-15T11:17:23;16.47;;;9.07;;
64688;SDS011;62504;46.070;14.492;2022-11-15T11:24:56;12.70;;;7.93;;
64688;SDS011;62504;46.070;14.492;2022-11-15T11:30:20;12.80;;;7.80;;
64688;SDS011;62504;46.070;14.492;2022-11-15T11:44:18;13.37;;;7.37;;
64688;SDS011;62504;46.070;14.492;2022-11-15T11:47:10;10.97;;;7.27;;
64688;SDS011;62504;46.070;14.492;2022-11-15T11:55:43;12.10;;;7.30;;
64688;SDS011;62504;46.070;14.492;2022-11-15T11:57:49;11.13;;;6.90;;
64688;SDS011;62504;46.070;14.492;2022-11-15T12:00:23;12.27;;;7.47;;
64688;SDS011;62504;46.070;14.492;2022-11-15T12:05:29;10.63;;;6.90;;
64688;SDS011;62504;46.070;14.492;2022-11-15T12:10:54;11.43;;;7.10;;
64688;SDS011;62504;46.070;14.492;2022-11-15T12:13:39;14.27;;;7.50;;
64688;SDS011;62504;46.070;14.492;2022-11-15T12:18:53;14.93;;;9.53;;
64688;SDS011;62504;46.070;14.492;2022-11-15T12:23:58;12.17;;;6.50;;
64688;SDS011;62504;46.070;14.492;2022-11-15T12:26:31;12.70;;;7.00;;
64688;SDS011;62504;46.070;14.492;2022-11-15T12:29:25;12.17;;;6.60;;
64688;SDS011;62504;46.070;14.492;2022-11-15T12:31:54;12.60;;;6.17;;
64688;SDS011;62504;46.070;14.492;2022-11-15T12:36:48;412.83;;;145.43;;
64688;SDS011;62504;46.070;14.492;2022-11-15T12:39:15;689.47;;;335.37;;
64688;SDS011;62504;46.070;14.492;2022-11-15T12:41:43;298.33;;;130.90;;
64688;SDS011;62504;46.070;14.492;2022-11-15T12:57:49;8.20;;;4.60;;
64688;SDS011;62504;46.070;14.492;2022-11-15T13:27:56;7.23;;;4.13;;
64688;SDS011;62504;46.070;14.492;2022-11-15T13:30:27;6.37;;;3.80;;
64688;SDS011;62504;46.070;14.492;2022-11-15T13:32:54;6.77;;;4.20;;
64688;SDS011;62504;46.070;14.492;2022-11-15T13:35:21;5.60;;;4.10;;
64688;SDS011;62504;46.070;14.492;2022-11-15T13:37:49;6.27;;;4.23;;
64688;SDS011;62504;46.070;14.492;2022-11-15T13:40:18;12.80;;;4.40;;
64688;SDS011;62504;46.070;14.492;2022-11-15T13:42:52;7.07;;;4.13;;
64688;SDS011;62504;46.070;14.492;2022-11-15T13:45:18;7.97;;;4.27;;
64688;SDS011;62504;46.070;14.492;2022-11-15T13:47:50;7.27;;;4.20;;
64688;SDS011;62504;46.070;14.492;2022-11-15T13:50:17;5.90;;;4.37;;
64688;SDS011;62504;46.070;14.492;2022-11-15T13:52:44;5.03;;;4.20;;
64688;SDS011;62504;46.070;14.492;2022-11-15T13:57:45;7.07;;;4.53;;
64688;SDS011;62504;46.070;14.492;2022-11-15T14:00:35;8.20;;;4.50;;
64688;SDS011;62504;46.070;14.492;2022-11-15T14:05:43;6.70;;;4.67;;
64688;SDS011;62504;46.070;14.492;2022-11-15T14:08:23;6.23;;;4.30;;
64688;SDS011;62504;46.070;14.492;2022-11-15T14:11:05;10.30;;;4.80;;
64688;SDS011;62504;46.070;14.492;2022-11-15T14:13:38;13.47;;;5.00;;
64688;SDS011;62504;46.070;14.492;2022-11-15T14:16:13;6.40;;;4.70;;
64688;SDS011;62504;46.070;14.492;2022-11-15T14:18:43;7.70;;;4.50;;
64688;SDS011;62504;46.070;14.492;2022-11-15T14:21:14;8.23;;;4.40;;
64688;SDS011;62504;46.070;14.492;2022-11-15T14:23:41;8.20;;;4.67;;
64688;SDS011;62504;46.070;14.492;2022-11-15T14:26:10;10.93;;;5.47;;
64688;SDS011;62504;46.070;14.492;2022-11-15T14:28:52;8.13;;;4.90;;
64688;SDS011;62504;46.070;14.492;2022-11-15T14:31:17;7.43;;;4.50;;
64688;SDS011;62504;46.070;14.492;2022-11-15T14:33:45;7.17;;;4.77;;
64688;SDS011;62504;46.070;14.492;2022-11-15T14:36:15;7.20;;;4.87;;
64688;SDS011;62504;46.070;14.492;2022-11-15T14:38:45;6.47;;;4.90;;
64688;SDS011;62504;46.070;14.492;2022-11-15T14:41:19;9.07;;;5.10;;
64688;SDS011;62504;46.070;14.492;2022-11-15T14:43:46;8.10;;;4.97;;
64688;SDS011;62504;46.070;14.492;2022-11-15T14:46:11;14.67;;;5.40;;
64688;SDS011;62504;46.070;14.492;2022-11-15T14:48:37;8.27;;;5.23;;
64688;SDS011;62504;46.070;14.492;2022-11-15T14:51:03;9.87;;;5.63;;
64688;SDS011;62504;46.070;14.492;2022-11-15T14:53:34;7.90;;;5.13;;
64688;SDS011;62504;46.070;14.492;2022-11-15T14:55:59;8.50;;;5.37;;
64688;SDS011;62504;46.070;14.492;2022-11-15T14:58:25;10.03;;;5.40;;
64688;SDS011;62504;46.070;14.492;2022-11-15T15:00:50;7.70;;;5.47;;
64688;SDS011;62504;46.070;14.492;2022-11-15T15:03:16;10.77;;;5.67;;
64688;SDS011;62504;46.070;14.492;2022-11-15T15:05:42;9.77;;;6.23;;
64688;SDS011;62504;46.070;14.492;2022-11-15T15:08:08;7.80;;;5.30;;
64688;SDS011;62504;46.070;14.492;2022-11-15T15:10:36;8.70;;;5.50;;
64688;SDS011;62504;46.070;14.492;2022-11-15T15:13:20;8.80;;;5.73;;
64688;SDS011;62504;46.070;14.492;2022-11-15T15:15:47;21.50;;;6.47;;
64688;SDS011;62504;46.070;14.492;2022-11-15T15:18:13;9.47;;;5.80;;
64688;SDS011;62504;46.070;14.492;2022-11-15T15:20:40;11.07;;;5.93;;
64688;SDS011;62504;46.070;14.492;2022-11-15T15:23:14;10.97;;;6.73;;
64688;SDS011;62504;46.070;14.492;2022-11-15T15:25:42;11.23;;;6.43;;
64688;SDS011;62504;46.070;14.492;2022-11-15T15:28:08;13.83;;;6.57;;
64688;SDS011;62504;46.070;14.492;2022-11-15T15:30:34;13.00;;;6.90;;
64688;SDS011;62504;46.070;14.492;2022-11-15T15:33:00;11.13;;;6.90;;
64688;SDS011;62504;46.070;14.492;2022-11-15T15:35:29;10.80;;;7.00;;
64688;SDS011;62504;46.070;14.492;2022-11-15T15:37:57;15.07;;;7.40;;
64688;SDS011;62504;46.070;14.492;2022-11-15T15:40:24;12.00;;;7.60;;
64688;SDS011;62504;46.070;14.492;2022-11-15T15:42:50;12.47;;;7.40;;
64688;SDS011;62504;46.070;14.492;2022-11-15T15:45:17;14.53;;;8.07;;
64688;SDS011;62504;46.070;14.492;2022-11-15T15:47:43;12.80;;;8.50;;
64688;SDS011;62504;46.070;14.492;2022-11-15T15:50:23;15.17;;;8.63;;
64688;SDS011;62504;46.070;14.492;2022-11-15T15:52:54;13.90;;;8.03;;
64688;SDS011;62504;46.070;14.492;2022-11-15T15:55:21;14.97;;;8.37;;
64688;SDS011;62504;46.070;14.492;2022-11-15T15:57:47;13.40;;;8.67;;
64688;SDS011;62504;46.070;14.492;2022-11-15T16:00:14;13.70;;;9.10;;
64688;SDS011;62504;46.070;14.492;2022-11-15T16:02:40;21.33;;;13.63;;
64688;SDS011;62504;46.070;14.492;2022-11-15T16:05:07;14.40;;;9.00;;
64688;SDS011;62504;46.070;14.492;2022-11-15T16:07:33;14.43;;;8.50;;
64688;SDS011;62504;46.070;14.492;2022-11-15T16:09:59;18.27;;;11.07;;
64688;SDS011;62504;46.070;14.492;2022-11-15T16:12:24;15.53;;;8.53;;
64688;SDS011;62504;46.070;14.492;2022-11-15T16:14:51;13.60;;;8.80;;
64688;SDS011;62504;46.070;14.492;2022-11-15T16:17:17;14.27;;;8.40;;
64688;SDS011;62504;46.070;14.492;2022-11-15T16:19:45;12.77;;;8.23;;
64688;SDS011;62504;46.070;14.492;2022-11-15T16:22:11;13.03;;;8.23;;
64688;SDS011;62504;46.070;14.492;2022-11-15T16:24:36;13.13;;;8.00;;
64688;SDS011;62504;46.070;14.492;2022-11-15T16:27:02;11.30;;;7.40;;
64688;SDS011;62504;46.070;14.492;2022-11-15T16:29:28;12.13;;;7.73;;
64688;SDS011;62504;46.070;14.492;2022-11-15T16:31:53;12.40;;;7.90;;
64688;SDS011;62504;46.070;14.492;2022-11-15T16:34:19;15.17;;;8.97;;
64688;SDS011;62504;46.070;14.492;2022-11-15T16:36:44;13.00;;;7.93;;
64688;SDS011;62504;46.070;14.492;2022-11-15T16:39:11;10.40;;;7.13;;
64688;SDS011;62504;46.070;14.492;2022-11-15T16:41:42;13.40;;;7.37;;
64688;SDS011;62504;46.070;14.492;2022-11-15T16:44:14;12.87;;;7.90;;
64688;SDS011;62504;46.070;14.492;2022-11-15T16:46:40;10.20;;;7.13;;
64688;SDS011;62504;46.070;14.492;2022-11-15T16:49:13;11.87;;;7.37;;
64688;SDS011;62504;46.070;14.492;2022-11-15T16:51:39;9.80;;;6.77;;
64688;SDS011;62504;46.070;14.492;2022-11-15T16:54:12;10.83;;;6.77;;
64688;SDS011;62504;46.070;14.492;2022-11-15T16:56:38;11.37;;;7.00;;
64688;SDS011;62504;46.070;14.492;2022-11-15T16:59:04;17.43;;;9.97;;